sensor_id;sensor_type;location;lat;lon;timestamp;temperature;humidity
37528;DHT22;23372;52.050;4.810;2022-09-09T00:32:44;15.50;99.90
37528;DHT22;23372;52.050;4.810;2022-09-09T00:37:35;15.40;99.90
37528;DHT22;23372;52.050;4.810;2022-09-09T00:40:25;15.40;99.90
37528;DHT22;23372;52.050;4.810;2022-09-09T00:43:28;15.30;99.90
37528;DHT22;23372;52.050;4.810;2022-09-09T00:46:13;15.40;99.90
37528;DHT22;23372;52.050;4.810;2022-09-09T00:48:53;15.40;99.90
37528;DHT22;23372;52.050;4.810;2022-09-09T00:51:43;15.30;99.90
37528;DHT22;23372;52.050;4.810;2022-09-09T00:57:34;15.30;99.90
37528;DHT22;23372;52.050;4.810;2022-09-09T01:02:59;15.20;99.90
37528;DHT22;23372;52.050;4.810;2022-09-09T01:05:43;15.20;99.90
37528;DHT22;23372;52.050;4.810;2022-09-09T01:08:35;15.20;99.90
37528;DHT22;23372;52.050;4.810;2022-09-09T01:11:02;15.10;99.90
37528;DHT22;23372;52.050;4.810;2022-09-09T01:13:30;15.10;99.90
37528;DHT22;23372;52.050;4.810;2022-09-09T01:16:01;15.10;99.90
37528;DHT22;23372;52.050;4.810;2022-09-09T01:18:32;15.10;99.90
37528;DHT22;23372;52.050;4.810;2022-09-09T01:26:39;15.00;99.90
37528;DHT22;23372;52.050;4.810;2022-09-09T01:29:11;14.90;99.90
37528;DHT22;23372;52.050;4.810;2022-09-09T01:31:51;14.90;99.90
37528;DHT22;23372;52.050;4.810;2022-09-09T01:34:17;14.80;99.90
37528;DHT22;23372;52.050;4.810;2022-09-09T01:37:05;14.90;99.90
37528;DHT22;23372;52.050;4.810;2022-09-09T01:39:33;14.90;99.90
37528;DHT22;23372;52.050;4.810;2022-09-09T01:42:01;14.90;99.90
37528;DHT22;23372;52.050;4.810;2022-09-09T01:44:28;14.90;99.90
37528;DHT22;23372;52.050;4.810;2022-09-09T01:46:54;14.90;99.90
37528;DHT22;23372;52.050;4.810;2022-09-09T01:49:20;14.90;99.90
37528;DHT22;23372;52.050;4.810;2022-09-09T01:51:49;15.00;99.90
37528;DHT22;23372;52.050;4.810;2022-09-09T01:54:15;14.90;99.90
37528;DHT22;23372;52.050;4.810;2022-09-09T01:56:54;15.00;99.90
37528;DHT22;23372;52.050;4.810;2022-09-09T02:02:17;15.00;99.90
37528;DHT22;23372;52.050;4.810;2022-09-09T02:04:48;15.10;99.90
37528;DHT22;23372;52.050;4.810;2022-09-09T02:07:42;15.00;99.90
37528;DHT22;23372;52.050;4.810;2022-09-09T02:10:21;15.00;99.90
37528;DHT22;23372;52.050;4.810;2022-09-09T02:13:02;15.10;99.90
37528;DHT22;23372;52.050;4.810;2022-09-09T02:15:52;15.10;99.90
37528;DHT22;23372;52.050;4.810;2022-09-09T02:18:51;15.10;99.90
37528;DHT22;23372;52.050;4.810;2022-09-09T02:21:18;15.00;99.90
37528;DHT22;23372;52.050;4.810;2022-09-09T02:23:47;15.10;99.90
37528;DHT22;23372;52.050;4.810;2022-09-09T02:26:15;15.10;99.90
37528;DHT22;23372;52.050;4.810;2022-09-09T02:28:46;15.10;99.90
37528;DHT22;23372;52.050;4.810;2022-09-09T02:31:14;15.10;99.90
37528;DHT22;23372;52.050;4.810;2022-09-09T02:33:45;15.10;99.90
37528;DHT22;23372;52.050;4.810;2022-09-09T02:36:15;15.10;99.90
37528;DHT22;23372;52.050;4.810;2022-09-09T02:38:46;15.10;99.90
37528;DHT22;23372;52.050;4.810;2022-09-09T02:41:19;15.10;99.90
37528;DHT22;23372;52.050;4.810;2022-09-09T02:43:47;15.10;99.90
37528;DHT22;23372;52.050;4.810;2022-09-09T02:49:09;15.10;99.90
37528;DHT22;23372;52.050;4.810;2022-09-09T02:51:48;15.00;99.90
37528;DHT22;23372;52.050;4.810;2022-09-09T02:56:53;14.90;99.90
37528;DHT22;23372;52.050;4.810;2022-09-09T02:59:22;15.00;99.90
37528;DHT22;23372;52.050;4.810;2022-09-09T03:01:47;14.90;99.90
37528;DHT22;23372;52.050;4.810;2022-09-09T03:04:13;14.80;99.90
37528;DHT22;23372;52.050;4.810;2022-09-09T03:06:39;14.80;99.90
37528;DHT22;23372;52.050;4.810;2022-09-09T03:09:05;14.60;99.90
37528;DHT22;23372;52.050;4.810;2022-09-09T03:11:31;14.60;99.90
37528;DHT22;23372;52.050;4.810;2022-09-09T03:13:56;14.50;99.90
37528;DHT22;23372;52.050;4.810;2022-09-09T03:16:23;14.50;99.90
37528;DHT22;23372;52.050;4.810;2022-09-09T03:18:48;14.50;99.90
37528;DHT22;23372;52.050;4.810;2022-09-09T03:21:14;14.40;99.90
37528;DHT22;23372;52.050;4.810;2022-09-09T03:23:40;14.40;99.90
37528;DHT22;23372;52.050;4.810;2022-09-09T03:26:05;14.40;99.90
37528;DHT22;23372;52.050;4.810;2022-09-09T03:28:31;14.30;99.90
37528;DHT22;23372;52.050;4.810;2022-09-09T03:31:01;14.20;99.90
37528;DHT22;23372;52.050;4.810;2022-09-09T03:33:27;14.20;99.90
37528;DHT22;23372;52.050;4.810;2022-09-09T03:35:53;14.20;99.90
37528;DHT22;23372;52.050;4.810;2022-09-09T03:38:24;14.20;99.90
37528;DHT22;23372;52.050;4.810;2022-09-09T03:40:54;14.20;99.90
37528;DHT22;23372;52.050;4.810;2022-09-09T03:43:25;14.30;99.90
37528;DHT22;23372;52.050;4.810;2022-09-09T03:45:51;14.10;99.90
37528;DHT22;23372;52.050;4.810;2022-09-09T03:48:18;14.20;99.90
37528;DHT22;23372;52.050;4.810;2022-09-09T03:50:48;14.10;99.90
37528;DHT22;23372;52.050;4.810;2022-09-09T03:53:15;14.10;99.90
37528;DHT22;23372;52.050;4.810;2022-09-09T03:55:45;14.10;99.90
37528;DHT22;23372;52.050;4.810;2022-09-09T03:58:13;14.10;99.90
37528;DHT22;23372;52.050;4.810;2022-09-09T04:00:39;14.10;99.90
37528;DHT22;23372;52.050;4.810;2022-09-09T04:03:08;14.00;99.90
37528;DHT22;23372;52.050;4.810;2022-09-09T04:05:34;14.00;99.90
37528;DHT22;23372;52.050;4.810;2022-09-09T04:07:59;13.90;99.90
37528;DHT22;23372;52.050;4.810;2022-09-09T04:10:25;13.90;99.90
37528;DHT22;23372;52.050;4.810;2022-09-09T04:12:51;14.00;99.90
37528;DHT22;23372;52.050;4.810;2022-09-09T04:15:18;14.00;99.90
37528;DHT22;23372;52.050;4.810;2022-09-09T04:17:44;13.90;99.90
37528;DHT22;23372;52.050;4.810;2022-09-09T04:20:09;13.90;99.90
37528;DHT22;23372;52.050;4.810;2022-09-09T04:22:37;13.90;99.90
37528;DHT22;23372;52.050;4.810;2022-09-09T04:25:05;14.00;99.90
37528;DHT22;23372;52.050;4.810;2022-09-09T04:27:31;13.90;99.90
37528;DHT22;23372;52.050;4.810;2022-09-09T04:29:57;13.90;99.90
37528;DHT22;23372;52.050;4.810;2022-09-09T04:32:23;13.90;99.90
37528;DHT22;23372;52.050;4.810;2022-09-09T04:34:48;13.90;99.90
37528;DHT22;23372;52.050;4.810;2022-09-09T04:37:14;14.00;99.90
37528;DHT22;23372;52.050;4.810;2022-09-09T04:39:40;14.00;99.90
37528;DHT22;23372;52.050;4.810;2022-09-09T04:42:05;14.00;99.90
37528;DHT22;23372;52.050;4.810;2022-09-09T04:44:31;14.00;99.90
37528;DHT22;23372;52.050;4.810;2022-09-09T04:46:56;14.00;99.90
37528;DHT22;23372;52.050;4.810;2022-09-09T04:49:22;13.90;99.90
37528;DHT22;23372;52.050;4.810;2022-09-09T04:51:49;13.90;99.90
37528;DHT22;23372;52.050;4.810;2022-09-09T04:54:14;13.90;99.90
37528;DHT22;23372;52.050;4.810;2022-09-09T04:56:40;13.90;99.90
37528;DHT22;23372;52.050;4.810;2022-09-09T04:59:07;14.00;99.90
37528;DHT22;23372;52.050;4.810;2022-09-09T05:01:33;14.00;99.90
37528;DHT22;23372;52.050;4.810;2022-09-09T05:03:58;13.90;99.90
37528;DHT22;23372;52.050;4.810;2022-09-09T05:06:24;13.90;99.90
37528;DHT22;23372;52.050;4.810;2022-09-09T05:08:51;14.00;99.90
37528;DHT22;23372;52.050;4.810;2022-09-09T05:11:27;14.00;99.90
37528;DHT22;23372;52.050;4.810;2022-09-09T05:13:54;13.90;99.90
37528;DHT22;23372;52.050;4.810;2022-09-09T05:16:20;14.00;99.90
37528;DHT22;23372;52.050;4.810;2022-09-09T05:18:46;14.00;99.90
37528;DHT22;23372;52.050;4.810;2022-09-09T05:21:13;13.90;99.90
37528;DHT22;23372;52.050;4.810;2022-09-09T05:23:39;14.00;99.90
37528;DHT22;23372;52.050;4.810;2022-09-09T05:26:06;14.00;99.90
37528;DHT22;23372;52.050;4.810;2022-09-09T05:28:34;13.90;99.90
37528;DHT22;23372;52.050;4.810;2022-09-09T05:31:03;14.00;99.90
37528;DHT22;23372;52.050;4.810;2022-09-09T05:33:30;14.00;99.90
37528;DHT22;23372;52.050;4.810;2022-09-09T05:36:02;14.10;99.90
37528;DHT22;23372;52.050;4.810;2022-09-09T05:38:28;14.10;99.90
37528;DHT22;23372;52.050;4.810;2022-09-09T05:40:54;14.10;99.90
37528;DHT22;23372;52.050;4.810;2022-09-09T05:43:21;14.20;99.90
37528;DHT22;23372;52.050;4.810;2022-09-09T05:45:47;14.30;99.90
37528;DHT22;23372;52.050;4.810;2022-09-09T05:48:14;14.30;99.90
37528;DHT22;23372;52.050;4.810;2022-09-09T05:50:43;14.40;99.90
37528;DHT22;23372;52.050;4.810;2022-09-09T05:53:10;14.40;99.90
37528;DHT22;23372;52.050;4.810;2022-09-09T05:55:36;14.40;99.90
37528;DHT22;23372;52.050;4.810;2022-09-09T05:58:02;14.50;99.90
37528;DHT22;23372;52.050;4.810;2022-09-09T06:00:28;14.60;99.90
37528;DHT22;23372;52.050;4.810;2022-09-09T06:02:56;14.70;99.90
37528;DHT22;23372;52.050;4.810;2022-09-09T06:05:22;14.70;99.90
37528;DHT22;23372;52.050;4.810;2022-09-09T06:07:52;14.90;99.90
37528;DHT22;23372;52.050;4.810;2022-09-09T06:10:18;14.90;99.90
37528;DHT22;23372;52.050;4.810;2022-09-09T06:12:44;15.00;99.90
37528;DHT22;23372;52.050;4.810;2022-09-09T06:15:10;15.20;99.90
37528;DHT22;23372;52.050;4.810;2022-09-09T06:17:35;15.20;99.90
37528;DHT22;23372;52.050;4.810;2022-09-09T06:20:02;15.30;99.90
37528;DHT22;23372;52.050;4.810;2022-09-09T06:22:27;15.20;99.90
37528;DHT22;23372;52.050;4.810;2022-09-09T06:24:53;15.40;99.90
37528;DHT22;23372;52.050;4.810;2022-09-09T06:27:19;15.40;99.90
37528;DHT22;23372;52.050;4.810;2022-09-09T06:29:44;15.30;99.90
37528;DHT22;23372;52.050;4.810;2022-09-09T06:32:10;15.40;99.90
37528;DHT22;23372;52.050;4.810;2022-09-09T06:34:35;15.40;99.90
37528;DHT22;23372;52.050;4.810;2022-09-09T06:37:02;15.40;99.90
37528;DHT22;23372;52.050;4.810;2022-09-09T06:39:27;15.50;99.90
37528;DHT22;23372;52.050;4.810;2022-09-09T06:41:53;15.50;99.90
37528;DHT22;23372;52.050;4.810;2022-09-09T06:44:19;15.50;99.90
37528;DHT22;23372;52.050;4.810;2022-09-09T06:46:45;15.50;99.90
37528;DHT22;23372;52.050;4.810;2022-09-09T06:49:13;15.60;99.90
37528;DHT22;23372;52.050;4.810;2022-09-09T06:51:39;15.70;99.90
37528;DHT22;23372;52.050;4.810;2022-09-09T06:54:12;15.80;99.90
37528;DHT22;23372;52.050;4.810;2022-09-09T06:56:39;15.80;99.90
37528;DHT22;23372;52.050;4.810;2022-09-09T06:59:09;15.90;99.90
37528;DHT22;23372;52.050;4.810;2022-09-09T07:01:37;16.00;99.90
37528;DHT22;23372;52.050;4.810;2022-09-09T07:04:04;16.00;99.90
37528;DHT22;23372;52.050;4.810;2022-09-09T07:06:34;16.00;99.90
37528;DHT22;23372;52.050;4.810;2022-09-09T07:09:03;16.00;99.90
37528;DHT22;23372;52.050;4.810;2022-09-09T07:11:32;16.20;99.90
37528;DHT22;23372;52.050;4.810;2022-09-09T07:13:59;16.20;99.90
37528;DHT22;23372;52.050;4.810;2022-09-09T07:16:26;16.30;99.90
37528;DHT22;23372;52.050;4.810;2022-09-09T07:18:53;16.20;99.90
37528;DHT22;23372;52.050;4.810;2022-09-09T07:21:23;16.20;99.90
37528;DHT22;23372;52.050;4.810;2022-09-09T07:23:50;16.20;99.90
37528;DHT22;23372;52.050;4.810;2022-09-09T07:26:17;16.20;99.90
37528;DHT22;23372;52.050;4.810;2022-09-09T07:28:44;16.20;99.90
37528;DHT22;23372;52.050;4.810;2022-09-09T07:31:15;16.30;99.90
37528;DHT22;23372;52.050;4.810;2022-09-09T07:33:42;16.30;99.90
37528;DHT22;23372;52.050;4.810;2022-09-09T07:36:10;16.30;99.90
37528;DHT22;23372;52.050;4.810;2022-09-09T07:38:39;16.50;99.90
37528;DHT22;23372;52.050;4.810;2022-09-09T07:41:10;16.50;99.90
37528;DHT22;23372;52.050;4.810;2022-09-09T07:43:38;16.50;99.90
37528;DHT22;23372;52.050;4.810;2022-09-09T07:46:05;16.50;99.90
37528;DHT22;23372;52.050;4.810;2022-09-09T07:48:31;16.40;99.90
37528;DHT22;23372;52.050;4.810;2022-09-09T07:51:30;16.50;99.90
37528;DHT22;23372;52.050;4.810;2022-09-09T07:54:01;16.60;99.90
37528;DHT22;23372;52.050;4.810;2022-09-09T07:56:28;16.50;99.90
37528;DHT22;23372;52.050;4.810;2022-09-09T07:58:54;16.60;99.90
37528;DHT22;23372;52.050;4.810;2022-09-09T08:01:24;16.60;99.90
37528;DHT22;23372;52.050;4.810;2022-09-09T08:03:58;16.60;99.90
37528;DHT22;23372;52.050;4.810;2022-09-09T08:06:25;16.60;99.90
37528;DHT22;23372;52.050;4.810;2022-09-09T08:08:52;16.50;99.90
37528;DHT22;23372;52.050;4.810;2022-09-09T08:11:18;16.60;99.90
37528;DHT22;23372;52.050;4.810;2022-09-09T08:13:44;16.50;99.90
37528;DHT22;23372;52.050;4.810;2022-09-09T08:16:13;16.60;99.90
37528;DHT22;23372;52.050;4.810;2022-09-09T08:18:39;16.50;99.90
37528;DHT22;23372;52.050;4.810;2022-09-09T08:21:15;16.50;99.90
37528;DHT22;23372;52.050;4.810;2022-09-09T08:23:44;16.40;99.90
37528;DHT22;23372;52.050;4.810;2022-09-09T08:26:16;16.50;99.90
37528;DHT22;23372;52.050;4.810;2022-09-09T08:28:43;16.50;99.90
37528;DHT22;23372;52.050;4.810;2022-09-09T08:31:24;16.50;99.90
37528;DHT22;23372;52.050;4.810;2022-09-09T08:33:50;16.50;99.90
37528;DHT22;23372;52.050;4.810;2022-09-09T08:36:18;16.50;99.90
37528;DHT22;23372;52.050;4.810;2022-09-09T08:38:48;16.40;99.90
37528;DHT22;23372;52.050;4.810;2022-09-09T08:41:25;16.50;99.90
37528;DHT22;23372;52.050;4.810;2022-09-09T08:44:02;16.50;99.90
37528;DHT22;23372;52.050;4.810;2022-09-09T08:49:22;16.60;99.90
37528;DHT22;23372;52.050;4.810;2022-09-09T08:51:51;16.70;99.90
37528;DHT22;23372;52.050;4.810;2022-09-09T08:54:20;16.80;99.90
37528;DHT22;23372;52.050;4.810;2022-09-09T08:56:47;16.80;99.90
37528;DHT22;23372;52.050;4.810;2022-09-09T08:59:17;16.80;99.90
37528;DHT22;23372;52.050;4.810;2022-09-09T09:02:06;16.80;99.90
37528;DHT22;23372;52.050;4.810;2022-09-09T09:04:37;16.80;99.90
37528;DHT22;23372;52.050;4.810;2022-09-09T09:07:35;16.80;99.90
37528;DHT22;23372;52.050;4.810;2022-09-09T09:10:21;16.70;99.90
37528;DHT22;23372;52.050;4.810;2022-09-09T09:12:51;16.80;99.90
37528;DHT22;23372;52.050;4.810;2022-09-09T09:15:21;16.80;99.90
37528;DHT22;23372;52.050;4.810;2022-09-09T09:17:48;16.70;99.90
37528;DHT22;23372;52.050;4.810;2022-09-09T09:20:15;16.80;99.90
37528;DHT22;23372;52.050;4.810;2022-09-09T09:22:52;16.70;99.90
37528;DHT22;23372;52.050;4.810;2022-09-09T09:30:39;16.60;99.90
37528;DHT22;23372;52.050;4.810;2022-09-09T09:35:52;16.70;99.90
37528;DHT22;23372;52.050;4.810;2022-09-09T09:38:23;16.70;99.90
37528;DHT22;23372;52.050;4.810;2022-09-09T09:40:54;16.70;99.90
37528;DHT22;23372;52.050;4.810;2022-09-09T09:43:30;16.70;99.90
37528;DHT22;23372;52.050;4.810;2022-09-09T09:45:56;16.80;99.90
37528;DHT22;23372;52.050;4.810;2022-09-09T09:48:27;16.80;99.90
37528;DHT22;23372;52.050;4.810;2022-09-09T09:50:59;16.80;99.90
37528;DHT22;23372;52.050;4.810;2022-09-09T09:53:30;16.70;99.90
37528;DHT22;23372;52.050;4.810;2022-09-09T09:56:05;16.60;99.90
37528;DHT22;23372;52.050;4.810;2022-09-09T09:58:37;16.50;99.90
37528;DHT22;23372;52.050;4.810;2022-09-09T10:01:04;16.50;99.90
37528;DHT22;23372;52.050;4.810;2022-09-09T10:03:32;16.50;99.90
37528;DHT22;23372;52.050;4.810;2022-09-09T10:06:03;16.60;99.90
37528;DHT22;23372;52.050;4.810;2022-09-09T10:08:29;16.70;99.90
37528;DHT22;23372;52.050;4.810;2022-09-09T10:19:15;18.30;99.90
37528;DHT22;23372;52.050;4.810;2022-09-09T10:30:16;18.00;99.90
37528;DHT22;23372;52.050;4.810;2022-09-09T10:33:04;17.90;99.90
37528;DHT22;23372;52.050;4.810;2022-09-09T10:38:42;17.90;99.90
37528;DHT22;23372;52.050;4.810;2022-09-09T10:41:52;18.10;99.90
37528;DHT22;23372;52.050;4.810;2022-09-09T10:44:30;18.00;99.90
37528;DHT22;23372;52.050;4.810;2022-09-09T10:52:32;17.60;99.90
37528;DHT22;23372;52.050;4.810;2022-09-09T10:55:10;17.80;99.90
37528;DHT22;23372;52.050;4.810;2022-09-09T10:57:48;17.80;99.90
37528;DHT22;23372;52.050;4.810;2022-09-09T11:00:16;17.80;99.90
37528;DHT22;23372;52.050;4.810;2022-09-09T11:02:43;17.70;99.90
37528;DHT22;23372;52.050;4.810;2022-09-09T11:05:30;17.40;99.90
37528;DHT22;23372;52.050;4.810;2022-09-09T11:08:11;17.40;99.90
37528;DHT22;23372;52.050;4.810;2022-09-09T11:14:02;17.30;99.90
37528;DHT22;23372;52.050;4.810;2022-09-09T11:19:30;17.10;99.90
37528;DHT22;23372;52.050;4.810;2022-09-09T11:24:51;17.20;99.90
37528;DHT22;23372;52.050;4.810;2022-09-09T11:31:19;17.50;99.90
37528;DHT22;23372;52.050;4.810;2022-09-09T11:36:22;17.70;99.90
37528;DHT22;23372;52.050;4.810;2022-09-09T11:38:56;18.00;99.90
37528;DHT22;23372;52.050;4.810;2022-09-09T11:41:34;18.20;99.90
37528;DHT22;23372;52.050;4.810;2022-09-09T11:43:59;18.40;99.90
37528;DHT22;23372;52.050;4.810;2022-09-09T11:46:35;18.40;99.90
37528;DHT22;23372;52.050;4.810;2022-09-09T11:49:04;18.50;99.90
37528;DHT22;23372;52.050;4.810;2022-09-09T11:51:31;18.30;99.90
37528;DHT22;23372;52.050;4.810;2022-09-09T11:53:58;18.20;99.90
37528;DHT22;23372;52.050;4.810;2022-09-09T11:56:47;18.10;99.90
37528;DHT22;23372;52.050;4.810;2022-09-09T11:59:32;18.00;99.90
37528;DHT22;23372;52.050;4.810;2022-09-09T12:02:03;18.10;99.90
37528;DHT22;23372;52.050;4.810;2022-09-09T12:04:41;18.00;99.90
37528;DHT22;23372;52.050;4.810;2022-09-09T12:12:32;17.80;99.90
37528;DHT22;23372;52.050;4.810;2022-09-09T12:17:27;18.00;99.90
37528;DHT22;23372;52.050;4.810;2022-09-09T12:20:19;18.00;99.90
37528;DHT22;23372;52.050;4.810;2022-09-09T12:28:20;18.30;99.90
37528;DHT22;23372;52.050;4.810;2022-09-09T12:31:00;18.30;99.90
37528;DHT22;23372;52.050;4.810;2022-09-09T12:33:37;18.20;99.90
37528;DHT22;23372;52.050;4.810;2022-09-09T12:36:05;18.20;99.90
37528;DHT22;23372;52.050;4.810;2022-09-09T12:38:40;18.20;99.90
37528;DHT22;23372;52.050;4.810;2022-09-09T12:41:05;18.20;99.90
37528;DHT22;23372;52.050;4.810;2022-09-09T12:43:31;18.10;99.90
37528;DHT22;23372;52.050;4.810;2022-09-09T12:46:07;18.10;99.90
37528;DHT22;23372;52.050;4.810;2022-09-09T12:48:37;18.00;99.90
37528;DHT22;23372;52.050;4.810;2022-09-09T12:51:07;17.80;99.90
37528;DHT22;23372;52.050;4.810;2022-09-09T12:53:40;17.70;99.90
37528;DHT22;23372;52.050;4.810;2022-09-09T12:56:09;17.60;99.90
37528;DHT22;23372;52.050;4.810;2022-09-09T12:58:46;17.70;99.90
37528;DHT22;23372;52.050;4.810;2022-09-09T13:01:27;17.60;99.90
37528;DHT22;23372;52.050;4.810;2022-09-09T13:03:54;17.70;99.90
37528;DHT22;23372;52.050;4.810;2022-09-09T13:06:28;17.80;99.90
37528;DHT22;23372;52.050;4.810;2022-09-09T13:08:55;17.80;99.90
37528;DHT22;23372;52.050;4.810;2022-09-09T13:11:33;17.70;99.90
37528;DHT22;23372;52.050;4.810;2022-09-09T13:14:01;17.70;99.90
37528;DHT22;23372;52.050;4.810;2022-09-09T13:16:32;17.70;99.90
37528;DHT22;23372;52.050;4.810;2022-09-09T13:19:01;17.70;99.90
37528;DHT22;23372;52.050;4.810;2022-09-09T13:21:39;17.70;99.90
37528;DHT22;23372;52.050;4.810;2022-09-09T13:24:06;17.70;99.90
37528;DHT22;23372;52.050;4.810;2022-09-09T13:26:34;17.70;99.90
37528;DHT22;23372;52.050;4.810;2022-09-09T13:29:18;17.70;99.90
37528;DHT22;23372;52.050;4.810;2022-09-09T13:31:45;17.70;99.90
37528;DHT22;23372;52.050;4.810;2022-09-09T13:34:27;17.60;99.90
37528;DHT22;23372;52.050;4.810;2022-09-09T13:37:05;17.60;99.90
37528;DHT22;23372;52.050;4.810;2022-09-09T13:39:34;17.60;99.90
37528;DHT22;23372;52.050;4.810;2022-09-09T13:42:02;17.50;99.90
37528;DHT22;23372;52.050;4.810;2022-09-09T13:44:37;17.50;99.90
37528;DHT22;23372;52.050;4.810;2022-09-09T13:47:06;17.50;99.90
37528;DHT22;23372;52.050;4.810;2022-09-09T13:49:42;17.50;99.90
37528;DHT22;23372;52.050;4.810;2022-09-09T13:52:16;17.50;99.90
37528;DHT22;23372;52.050;4.810;2022-09-09T13:54:42;17.60;99.90
37528;DHT22;23372;52.050;4.810;2022-09-09T13:57:20;17.80;99.90
37528;DHT22;23372;52.050;4.810;2022-09-09T13:59:46;17.80;99.90
37528;DHT22;23372;52.050;4.810;2022-09-09T14:02:13;18.00;99.90
37528;DHT22;23372;52.050;4.810;2022-09-09T14:04:39;18.10;99.90
37528;DHT22;23372;52.050;4.810;2022-09-09T14:07:12;18.30;99.90
37528;DHT22;23372;52.050;4.810;2022-09-09T14:09:39;18.40;99.90
37528;DHT22;23372;52.050;4.810;2022-09-09T14:12:08;18.50;99.90
37528;DHT22;23372;52.050;4.810;2022-09-09T14:14:34;18.70;99.90
37528;DHT22;23372;52.050;4.810;2022-09-09T14:17:00;18.50;99.90
37528;DHT22;23372;52.050;4.810;2022-09-09T14:19:25;18.50;99.90
37528;DHT22;23372;52.050;4.810;2022-09-09T14:21:51;18.40;99.90
37528;DHT22;23372;52.050;4.810;2022-09-09T14:24:17;18.30;99.90
37528;DHT22;23372;52.050;4.810;2022-09-09T14:26:42;18.10;99.90
37528;DHT22;23372;52.050;4.810;2022-09-09T14:29:08;17.90;99.90
37528;DHT22;23372;52.050;4.810;2022-09-09T14:31:34;17.80;99.90
37528;DHT22;23372;52.050;4.810;2022-09-09T14:33:59;17.80;99.90
37528;DHT22;23372;52.050;4.810;2022-09-09T14:36:25;17.70;99.90
37528;DHT22;23372;52.050;4.810;2022-09-09T14:38:51;17.70;99.90
37528;DHT22;23372;52.050;4.810;2022-09-09T14:41:18;17.60;99.90
37528;DHT22;23372;52.050;4.810;2022-09-09T14:43:45;17.40;99.90
37528;DHT22;23372;52.050;4.810;2022-09-09T14:46:13;17.50;99.90
37528;DHT22;23372;52.050;4.810;2022-09-09T14:48:39;17.50;99.90
37528;DHT22;23372;52.050;4.810;2022-09-09T14:51:11;17.50;99.90
37528;DHT22;23372;52.050;4.810;2022-09-09T14:53:38;17.60;99.90
37528;DHT22;23372;52.050;4.810;2022-09-09T14:58:31;17.70;99.90
37528;DHT22;23372;52.050;4.810;2022-09-09T15:01:03;17.70;99.90
37528;DHT22;23372;52.050;4.810;2022-09-09T15:03:29;17.80;99.90
37528;DHT22;23372;52.050;4.810;2022-09-09T15:05:54;17.90;99.90
37528;DHT22;23372;52.050;4.810;2022-09-09T15:08:20;17.80;99.90
37528;DHT22;23372;52.050;4.810;2022-09-09T15:10:45;17.80;99.90
37528;DHT22;23372;52.050;4.810;2022-09-09T15:13:14;17.80;99.90
37528;DHT22;23372;52.050;4.810;2022-09-09T15:15:40;17.90;99.90
37528;DHT22;23372;52.050;4.810;2022-09-09T15:18:06;18.00;99.90
37528;DHT22;23372;52.050;4.810;2022-09-09T15:20:32;18.00;99.90
37528;DHT22;23372;52.050;4.810;2022-09-09T15:22:57;18.30;99.90
37528;DHT22;23372;52.050;4.810;2022-09-09T15:25:23;18.10;99.90
37528;DHT22;23372;52.050;4.810;2022-09-09T15:27:48;18.30;99.90
37528;DHT22;23372;52.050;4.810;2022-09-09T15:30:14;18.40;99.90
37528;DHT22;23372;52.050;4.810;2022-09-09T15:32:40;18.60;99.90
37528;DHT22;23372;52.050;4.810;2022-09-09T15:35:06;18.60;99.90
37528;DHT22;23372;52.050;4.810;2022-09-09T15:37:31;18.80;99.90
37528;DHT22;23372;52.050;4.810;2022-09-09T15:39:57;18.90;99.90
37528;DHT22;23372;52.050;4.810;2022-09-09T15:42:24;19.20;99.90
37528;DHT22;23372;52.050;4.810;2022-09-09T15:44:50;19.30;99.90
37528;DHT22;23372;52.050;4.810;2022-09-09T15:47:16;19.00;99.90
37528;DHT22;23372;52.050;4.810;2022-09-09T15:49:42;19.00;99.90
37528;DHT22;23372;52.050;4.810;2022-09-09T15:52:10;19.00;99.90
37528;DHT22;23372;52.050;4.810;2022-09-09T15:54:36;19.00;99.90
37528;DHT22;23372;52.050;4.810;2022-09-09T15:57:05;18.90;99.90
37528;DHT22;23372;52.050;4.810;2022-09-09T15:59:31;18.80;99.90
37528;DHT22;23372;52.050;4.810;2022-09-09T16:01:59;18.90;99.90
37528;DHT22;23372;52.050;4.810;2022-09-09T16:04:26;19.00;99.90
37528;DHT22;23372;52.050;4.810;2022-09-09T16:06:56;18.80;99.90
37528;DHT22;23372;52.050;4.810;2022-09-09T16:09:24;18.70;99.90
37528;DHT22;23372;52.050;4.810;2022-09-09T16:11:49;18.70;99.90
37528;DHT22;23372;52.050;4.810;2022-09-09T16:14:16;18.60;99.90
37528;DHT22;23372;52.050;4.810;2022-09-09T16:16:42;18.60;99.90
37528;DHT22;23372;52.050;4.810;2022-09-09T16:19:10;18.60;99.90
37528;DHT22;23372;52.050;4.810;2022-09-09T16:21:39;18.60;99.90
37528;DHT22;23372;52.050;4.810;2022-09-09T16:24:06;18.60;99.90
37528;DHT22;23372;52.050;4.810;2022-09-09T16:26:33;18.50;99.90
37528;DHT22;23372;52.050;4.810;2022-09-09T16:29:00;18.50;99.90
37528;DHT22;23372;52.050;4.810;2022-09-09T16:31:27;18.50;99.90
37528;DHT22;23372;52.050;4.810;2022-09-09T16:33:53;18.50;99.90
37528;DHT22;23372;52.050;4.810;2022-09-09T16:36:27;18.40;99.90
37528;DHT22;23372;52.050;4.810;2022-09-09T16:38:54;18.30;99.90
37528;DHT22;23372;52.050;4.810;2022-09-09T16:41:20;18.20;99.90
37528;DHT22;23372;52.050;4.810;2022-09-09T16:43:46;18.30;99.90
37528;DHT22;23372;52.050;4.810;2022-09-09T16:46:13;18.40;99.90
37528;DHT22;23372;52.050;4.810;2022-09-09T16:48:42;18.20;99.90
37528;DHT22;23372;52.050;4.810;2022-09-09T16:51:13;18.10;99.90
37528;DHT22;23372;52.050;4.810;2022-09-09T16:53:40;18.10;99.90
37528;DHT22;23372;52.050;4.810;2022-09-09T16:56:09;18.00;99.90
37528;DHT22;23372;52.050;4.810;2022-09-09T16:58:35;18.10;99.90
37528;DHT22;23372;52.050;4.810;2022-09-09T17:01:02;18.10;99.90
37528;DHT22;23372;52.050;4.810;2022-09-09T17:03:28;18.10;99.90
37528;DHT22;23372;52.050;4.810;2022-09-09T17:05:54;18.20;99.90
37528;DHT22;23372;52.050;4.810;2022-09-09T17:08:20;18.20;99.90
37528;DHT22;23372;52.050;4.810;2022-09-09T17:10:45;18.10;99.90
37528;DHT22;23372;52.050;4.810;2022-09-09T17:13:13;18.10;99.90
37528;DHT22;23372;52.050;4.810;2022-09-09T17:15:40;18.10;99.90
37528;DHT22;23372;52.050;4.810;2022-09-09T17:18:08;18.00;99.90
37528;DHT22;23372;52.050;4.810;2022-09-09T17:20:39;18.00;99.90
37528;DHT22;23372;52.050;4.810;2022-09-09T17:23:05;17.90;99.90
37528;DHT22;23372;52.050;4.810;2022-09-09T17:25:31;17.90;99.90
37528;DHT22;23372;52.050;4.810;2022-09-09T17:27:57;17.80;99.90
37528;DHT22;23372;52.050;4.810;2022-09-09T17:30:23;17.80;99.90
37528;DHT22;23372;52.050;4.810;2022-09-09T17:32:49;17.70;99.90
37528;DHT22;23372;52.050;4.810;2022-09-09T17:35:14;17.70;99.90
37528;DHT22;23372;52.050;4.810;2022-09-09T17:37:40;17.70;99.90
37528;DHT22;23372;52.050;4.810;2022-09-09T17:40:07;17.60;99.90
37528;DHT22;23372;52.050;4.810;2022-09-09T17:42:33;17.50;99.90
37528;DHT22;23372;52.050;4.810;2022-09-09T17:44:59;17.30;99.90
37528;DHT22;23372;52.050;4.810;2022-09-09T17:47:25;17.40;99.90